sensor_id;sensor_type;location;lat;lon;timestamp;P1;P2;P0
74078;PMS5003;62437;51.544;-3.276;2022-11-04T00:01:11;6;6;
74078;PMS5003;62437;51.544;-3.276;2022-11-04T00:03:36;5;5;
74078;PMS5003;62437;51.544;-3.276;2022-11-04T00:06:02;4;4;
74078;PMS5003;62437;51.544;-3.276;2022-11-04T00:08:28;6;6;
74078;PMS5003;62437;51.544;-3.276;2022-11-04T00:10:54;7;5;
74078;PMS5003;62437;51.544;-3.276;2022-11-04T00:13:19;6;5;
74078;PMS5003;62437;51.544;-3.276;2022-11-04T00:15:45;4;4;
74078;PMS5003;62437;51.544;-3.276;2022-11-04T00:18:11;8;7;
74078;PMS5003;62437;51.544;-3.276;2022-11-04T00:20:36;5;5;
74078;PMS5003;62437;51.544;-3.276;2022-11-04T00:23:02;6;6;
74078;PMS5003;62437;51.544;-3.276;2022-11-04T00:25:28;5;4;
74078;PMS5003;62437;51.544;-3.276;2022-11-04T00:30:19;4;4;
74078;PMS5003;62437;51.544;-3.276;2022-11-04T00:32:45;5;5;
74078;PMS5003;62437;51.544;-3.276;2022-11-04T00:35:11;4;4;
74078;PMS5003;62437;51.544;-3.276;2022-11-04T00:37:37;3;3;
74078;PMS5003;62437;51.544;-3.276;2022-11-04T00:40:03;5;5;
74078;PMS5003;62437;51.544;-3.276;2022-11-04T00:42:28;6;5;
74078;PMS5003;62437;51.544;-3.276;2022-11-04T00:44:54;9;8;
74078;PMS5003;62437;51.544;-3.276;2022-11-04T00:47:20;8;7;
74078;PMS5003;62437;51.544;-3.276;2022-11-04T00:49:46;8;7;
74078;PMS5003;62437;51.544;-3.276;2022-11-04T00:52:11;7;7;
74078;PMS5003;62437;51.544;-3.276;2022-11-04T00:54:37;7;7;
74078;PMS5003;62437;51.544;-3.276;2022-11-04T00:57:03;5;5;
74078;PMS5003;62437;51.544;-3.276;2022-11-04T00:59:28;6;6;
74078;PMS5003;62437;51.544;-3.276;2022-11-04T01:01:54;6;6;
74078;PMS5003;62437;51.544;-3.276;2022-11-04T01:04:20;5;5;
74078;PMS5003;62437;51.544;-3.276;2022-11-04T01:06:45;3;3;
74078;PMS5003;62437;51.544;-3.276;2022-11-04T01:09:11;5;5;
74078;PMS5003;62437;51.544;-3.276;2022-11-04T01:11:37;7;7;
74078;PMS5003;62437;51.544;-3.276;2022-11-04T01:14:10;6;6;
74078;PMS5003;62437;51.544;-3.276;2022-11-04T01:16:28;6;5;
74078;PMS5003;62437;51.544;-3.276;2022-11-04T01:18:54;7;6;
74078;PMS5003;62437;51.544;-3.276;2022-11-04T01:21:20;4;4;
74078;PMS5003;62437;51.544;-3.276;2022-11-04T01:23:45;4;4;
74078;PMS5003;62437;51.544;-3.276;2022-11-04T01:26:11;4;4;
74078;PMS5003;62437;51.544;-3.276;2022-11-04T01:28:37;6;6;
74078;PMS5003;62437;51.544;-3.276;2022-11-04T01:31:04;5;5;
74078;PMS5003;62437;51.544;-3.276;2022-11-04T01:33:28;6;6;
74078;PMS5003;62437;51.544;-3.276;2022-11-04T01:35:57;4;4;
74078;PMS5003;62437;51.544;-3.276;2022-11-04T01:38:20;7;6;
74078;PMS5003;62437;51.544;-3.276;2022-11-04T01:40:45;4;4;
74078;PMS5003;62437;51.544;-3.276;2022-11-04T01:43:11;3;3;
74078;PMS5003;62437;51.544;-3.276;2022-11-04T01:45:37;4;4;
74078;PMS5003;62437;51.544;-3.276;2022-11-04T01:48:03;4;4;
74078;PMS5003;62437;51.544;-3.276;2022-11-04T01:50:29;4;4;
74078;PMS5003;62437;51.544;-3.276;2022-11-04T01:52:55;4;3;
74078;PMS5003;62437;51.544;-3.276;2022-11-04T01:55:21;4;4;
74078;PMS5003;62437;51.544;-3.276;2022-11-04T01:57:46;5;5;
74078;PMS5003;62437;51.544;-3.276;2022-11-04T02:00:12;7;4;
74078;PMS5003;62437;51.544;-3.276;2022-11-04T02:02:39;5;5;
74078;PMS5003;62437;51.544;-3.276;2022-11-04T02:05:02;6;4;
74078;PMS5003;62437;51.544;-3.276;2022-11-04T02:07:28;4;4;
74078;PMS5003;62437;51.544;-3.276;2022-11-04T02:09:54;4;4;
74078;PMS5003;62437;51.544;-3.276;2022-11-04T02:12:19;4;4;
74078;PMS5003;62437;51.544;-3.276;2022-11-04T02:14:45;2;2;
74078;PMS5003;62437;51.544;-3.276;2022-11-04T02:17:14;4;4;
74078;PMS5003;62437;51.544;-3.276;2022-11-04T02:19:42;5;4;
74078;PMS5003;62437;51.544;-3.276;2022-11-04T02:22:07;3;3;
74078;PMS5003;62437;51.544;-3.276;2022-11-04T02:29:23;2;2;
74078;PMS5003;62437;51.544;-3.276;2022-11-04T02:31:46;3;3;
74078;PMS5003;62437;51.544;-3.276;2022-11-04T02:34:12;3;2;
74078;PMS5003;62437;51.544;-3.276;2022-11-04T02:36:42;3;3;
74078;PMS5003;62437;51.544;-3.276;2022-11-04T02:39:03;3;3;
74078;PMS5003;62437;51.544;-3.276;2022-11-04T02:41:29;2;2;
74078;PMS5003;62437;51.544;-3.276;2022-11-04T02:43:56;3;3;
74078;PMS5003;62437;51.544;-3.276;2022-11-04T02:46:20;2;2;
74078;PMS5003;62437;51.544;-3.276;2022-11-04T02:48:45;3;3;
74078;PMS5003;62437;51.544;-3.276;2022-11-04T02:51:11;2;2;
74078;PMS5003;62437;51.544;-3.276;2022-11-04T02:53:37;4;4;
74078;PMS5003;62437;51.544;-3.276;2022-11-04T02:56:02;5;5;
74078;PMS5003;62437;51.544;-3.276;2022-11-04T02:58:28;4;4;
74078;PMS5003;62437;51.544;-3.276;2022-11-04T03:00:53;3;3;
74078;PMS5003;62437;51.544;-3.276;2022-11-04T03:03:20;5;3;
74078;PMS5003;62437;51.544;-3.276;2022-11-04T03:05:45;2;2;
74078;PMS5003;62437;51.544;-3.276;2022-11-04T03:08:13;4;4;
74078;PMS5003;62437;51.544;-3.276;2022-11-04T03:10:37;4;4;
74078;PMS5003;62437;51.544;-3.276;2022-11-04T03:13:03;4;3;
74078;PMS5003;62437;51.544;-3.276;2022-11-04T03:15:28;7;6;
74078;PMS5003;62437;51.544;-3.276;2022-11-04T03:17:54;5;4;
74078;PMS5003;62437;51.544;-3.276;2022-11-04T03:20:19;5;5;
74078;PMS5003;62437;51.544;-3.276;2022-11-04T03:22:45;6;6;
74078;PMS5003;62437;51.544;-3.276;2022-11-04T03:25:10;5;5;
74078;PMS5003;62437;51.544;-3.276;2022-11-04T03:27:41;6;6;
74078;PMS5003;62437;51.544;-3.276;2022-11-04T03:30:03;4;3;
74078;PMS5003;62437;51.544;-3.276;2022-11-04T03:32:29;5;5;
74078;PMS5003;62437;51.544;-3.276;2022-11-04T03:34:53;6;6;
74078;PMS5003;62437;51.544;-3.276;2022-11-04T03:37:19;4;4;
74078;PMS5003;62437;51.544;-3.276;2022-11-04T03:39:44;3;3;
74078;PMS5003;62437;51.544;-3.276;2022-11-04T03:42:10;2;2;
74078;PMS5003;62437;51.544;-3.276;2022-11-04T03:44:36;8;7;
74078;PMS5003;62437;51.544;-3.276;2022-11-04T03:47:01;7;6;
74078;PMS5003;62437;51.544;-3.276;2022-11-04T03:49:27;5;5;
74078;PMS5003;62437;51.544;-3.276;2022-11-04T03:51:53;4;4;
74078;PMS5003;62437;51.544;-3.276;2022-11-04T03:54:19;6;5;
74078;PMS5003;62437;51.544;-3.276;2022-11-04T03:56:49;5;5;
74078;PMS5003;62437;51.544;-3.276;2022-11-04T03:59:14;5;4;
74078;PMS5003;62437;51.544;-3.276;2022-11-04T04:01:38;4;4;
74078;PMS5003;62437;51.544;-3.276;2022-11-04T04:04:04;6;6;
74078;PMS5003;62437;51.544;-3.276;2022-11-04T04:06:28;6;5;
74078;PMS5003;62437;51.544;-3.276;2022-11-04T04:08:54;6;5;
74078;PMS5003;62437;51.544;-3.276;2022-11-04T04:11:20;4;3;
74078;PMS5003;62437;51.544;-3.276;2022-11-04T04:13:47;7;7;
74078;PMS5003;62437;51.544;-3.276;2022-11-04T04:16:11;9;9;
74078;PMS5003;62437;51.544;-3.276;2022-11-04T04:18:38;6;5;
74078;PMS5003;62437;51.544;-3.276;2022-11-04T04:21:02;4;4;
74078;PMS5003;62437;51.544;-3.276;2022-11-04T04:23:28;5;5;
74078;PMS5003;62437;51.544;-3.276;2022-11-04T04:25:53;6;6;
74078;PMS5003;62437;51.544;-3.276;2022-11-04T04:28:19;5;5;
74078;PMS5003;62437;51.544;-3.276;2022-11-04T04:30:44;9;6;
74078;PMS5003;62437;51.544;-3.276;2022-11-04T04:33:11;5;5;
74078;PMS5003;62437;51.544;-3.276;2022-11-04T04:35:38;6;5;
74078;PMS5003;62437;51.544;-3.276;2022-11-04T04:38:03;5;5;
74078;PMS5003;62437;51.544;-3.276;2022-11-04T04:40:27;9;6;
74078;PMS5003;62437;51.544;-3.276;2022-11-04T04:42:53;3;3;
74078;PMS5003;62437;51.544;-3.276;2022-11-04T04:45:20;7;5;
74078;PMS5003;62437;51.544;-3.276;2022-11-04T04:47:44;5;5;
74078;PMS5003;62437;51.544;-3.276;2022-11-04T04:50:12;6;6;
74078;PMS5003;62437;51.544;-3.276;2022-11-04T04:52:36;4;4;
74078;PMS5003;62437;51.544;-3.276;2022-11-04T04:55:02;6;5;
74078;PMS5003;62437;51.544;-3.276;2022-11-04T04:57:27;6;6;
74078;PMS5003;62437;51.544;-3.276;2022-11-04T04:59:53;6;4;
74078;PMS5003;62437;51.544;-3.276;2022-11-04T05:02:19;5;5;
74078;PMS5003;62437;51.544;-3.276;2022-11-04T05:04:45;4;4;
74078;PMS5003;62437;51.544;-3.276;2022-11-04T05:07:10;5;5;
74078;PMS5003;62437;51.544;-3.276;2022-11-04T05:09:36;3;3;
74078;PMS5003;62437;51.544;-3.276;2022-11-04T05:12:02;3;3;
74078;PMS5003;62437;51.544;-3.276;2022-11-04T05:14:28;5;5;
74078;PMS5003;62437;51.544;-3.276;2022-11-04T05:16:53;5;4;
74078;PMS5003;62437;51.544;-3.276;2022-11-04T05:19:18;7;7;
74078;PMS5003;62437;51.544;-3.276;2022-11-04T05:21:44;4;4;
74078;PMS5003;62437;51.544;-3.276;2022-11-04T05:24:10;4;4;
74078;PMS5003;62437;51.544;-3.276;2022-11-04T05:26:35;7;4;
74078;PMS5003;62437;51.544;-3.276;2022-11-04T05:29:01;6;5;
74078;PMS5003;62437;51.544;-3.276;2022-11-04T05:31:27;5;5;
74078;PMS5003;62437;51.544;-3.276;2022-11-04T05:33:52;7;6;
74078;PMS5003;62437;51.544;-3.276;2022-11-04T05:36:18;6;5;
74078;PMS5003;62437;51.544;-3.276;2022-11-04T05:38:48;9;7;
74078;PMS5003;62437;51.544;-3.276;2022-11-04T05:41:10;9;6;
74078;PMS5003;62437;51.544;-3.276;2022-11-04T05:43:35;4;4;
74078;PMS5003;62437;51.544;-3.276;2022-11-04T05:46:01;5;4;
74078;PMS5003;62437;51.544;-3.276;2022-11-04T05:48:27;7;6;
74078;PMS5003;62437;51.544;-3.276;2022-11-04T05:50:53;4;3;
74078;PMS5003;62437;51.544;-3.276;2022-11-04T05:53:18;4;3;
74078;PMS5003;62437;51.544;-3.276;2022-11-04T05:55:43;6;6;
74078;PMS5003;62437;51.544;-3.276;2022-11-04T05:58:09;6;5;
74078;PMS5003;62437;51.544;-3.276;2022-11-04T06:00:35;4;4;
74078;PMS5003;62437;51.544;-3.276;2022-11-04T06:03:01;5;5;
74078;PMS5003;62437;51.544;-3.276;2022-11-04T06:05:26;3;3;
74078;PMS5003;62437;51.544;-3.276;2022-11-04T06:07:52;6;6;
74078;PMS5003;62437;51.544;-3.276;2022-11-04T06:10:18;6;6;
74078;PMS5003;62437;51.544;-3.276;2022-11-04T06:12:44;13;11;
74078;PMS5003;62437;51.544;-3.276;2022-11-04T06:15:09;12;10;
74078;PMS5003;62437;51.544;-3.276;2022-11-04T06:17:34;9;6;
74078;PMS5003;62437;51.544;-3.276;2022-11-04T06:20:00;14;13;
74078;PMS5003;62437;51.544;-3.276;2022-11-04T06:22:26;5;5;
74078;PMS5003;62437;51.544;-3.276;2022-11-04T06:24:51;8;8;
74078;PMS5003;62437;51.544;-3.276;2022-11-04T06:27:17;6;6;
74078;PMS5003;62437;51.544;-3.276;2022-11-04T06:29:43;12;11;
74078;PMS5003;62437;51.544;-3.276;2022-11-04T06:32:09;5;4;
74078;PMS5003;62437;51.544;-3.276;2022-11-04T06:34:34;3;3;
74078;PMS5003;62437;51.544;-3.276;2022-11-04T06:37:00;5;3;
74078;PMS5003;62437;51.544;-3.276;2022-11-04T06:39:26;6;5;
74078;PMS5003;62437;51.544;-3.276;2022-11-04T06:41:51;4;3;
74078;PMS5003;62437;51.544;-3.276;2022-11-04T06:44:17;2;2;
74078;PMS5003;62437;51.544;-3.276;2022-11-04T06:46:43;2;2;
74078;PMS5003;62437;51.544;-3.276;2022-11-04T06:49:10;4;4;
74078;PMS5003;62437;51.544;-3.276;2022-11-04T06:51:34;4;4;
74078;PMS5003;62437;51.544;-3.276;2022-11-04T06:54:00;3;3;
74078;PMS5003;62437;51.544;-3.276;2022-11-04T06:56:26;6;6;
74078;PMS5003;62437;51.544;-3.276;2022-11-04T06:58:52;3;2;
74078;PMS5003;62437;51.544;-3.276;2022-11-04T07:01:17;4;4;
74078;PMS5003;62437;51.544;-3.276;2022-11-04T07:03:42;5;4;
74078;PMS5003;62437;51.544;-3.276;2022-11-04T07:06:08;3;3;
74078;PMS5003;62437;51.544;-3.276;2022-11-04T07:08:34;2;2;
74078;PMS5003;62437;51.544;-3.276;2022-11-04T07:11:00;3;2;
74078;PMS5003;62437;51.544;-3.276;2022-11-04T07:13:25;3;3;
74078;PMS5003;62437;51.544;-3.276;2022-11-04T07:15:51;2;2;
74078;PMS5003;62437;51.544;-3.276;2022-11-04T07:18:17;3;2;
74078;PMS5003;62437;51.544;-3.276;2022-11-04T07:20:42;3;3;
74078;PMS5003;62437;51.544;-3.276;2022-11-04T07:23:08;3;2;
74078;PMS5003;62437;51.544;-3.276;2022-11-04T07:25:33;3;3;
74078;PMS5003;62437;51.544;-3.276;2022-11-04T07:27:59;5;4;
74078;PMS5003;62437;51.544;-3.276;2022-11-04T07:30:24;4;4;
74078;PMS5003;62437;51.544;-3.276;2022-11-04T07:32:50;3;2;
74078;PMS5003;62437;51.544;-3.276;2022-11-04T07:35:16;6;6;
74078;PMS5003;62437;51.544;-3.276;2022-11-04T07:37:41;3;3;
74078;PMS5003;62437;51.544;-3.276;2022-11-04T07:40:08;2;2;
74078;PMS5003;62437;51.544;-3.276;2022-11-04T07:42:33;4;3;
74078;PMS5003;62437;51.544;-3.276;2022-11-04T07:44:58;2;2;
74078;PMS5003;62437;51.544;-3.276;2022-11-04T07:47:24;2;2;
74078;PMS5003;62437;51.544;-3.276;2022-11-04T07:49:50;3;2;
74078;PMS5003;62437;51.544;-3.276;2022-11-04T07:52:16;3;2;
74078;PMS5003;62437;51.544;-3.276;2022-11-04T07:54:42;3;3;
74078;PMS5003;62437;51.544;-3.276;2022-11-04T07:57:07;4;4;
74078;PMS5003;62437;51.544;-3.276;2022-11-04T07:59:33;2;2;
74078;PMS5003;62437;51.544;-3.276;2022-11-04T08:01:59;4;4;
74078;PMS5003;62437;51.544;-3.276;2022-11-04T08:04:24;4;2;
74078;PMS5003;62437;51.544;-3.276;2022-11-04T08:06:50;5;4;
74078;PMS5003;62437;51.544;-3.276;2022-11-04T08:09:16;5;5;
74078;PMS5003;62437;51.544;-3.276;2022-11-04T08:11:42;2;2;
74078;PMS5003;62437;51.544;-3.276;2022-11-04T08:14:07;2;2;
74078;PMS5003;62437;51.544;-3.276;2022-11-04T08:16:33;3;3;
74078;PMS5003;62437;51.544;-3.276;2022-11-04T08:18:59;5;3;
74078;PMS5003;62437;51.544;-3.276;2022-11-04T08:21:24;1;1;
74078;PMS5003;62437;51.544;-3.276;2022-11-04T08:23:50;2;2;
74078;PMS5003;62437;51.544;-3.276;2022-11-04T08:26:16;3;3;
74078;PMS5003;62437;51.544;-3.276;2022-11-04T08:28:42;2;2;
74078;PMS5003;62437;51.544;-3.276;2022-11-04T08:31:08;5;4;
74078;PMS5003;62437;51.544;-3.276;2022-11-04T08:33:33;4;3;
74078;PMS5003;62437;51.544;-3.276;2022-11-04T08:35:59;2;2;
74078;PMS5003;62437;51.544;-3.276;2022-11-04T08:38:24;3;2;
74078;PMS5003;62437;51.544;-3.276;2022-11-04T08:40:50;2;2;
74078;PMS5003;62437;51.544;-3.276;2022-11-04T08:43:15;3;2;
74078;PMS5003;62437;51.544;-3.276;2022-11-04T08:45:41;2;2;
74078;PMS5003;62437;51.544;-3.276;2022-11-04T08:48:07;3;3;
74078;PMS5003;62437;51.544;-3.276;2022-11-04T08:50:32;2;2;
74078;PMS5003;62437;51.544;-3.276;2022-11-04T08:52:58;2;2;
74078;PMS5003;62437;51.544;-3.276;2022-11-04T08:55:24;3;3;
74078;PMS5003;62437;51.544;-3.276;2022-11-04T08:57:50;3;3;
74078;PMS5003;62437;51.544;-3.276;2022-11-04T09:00:15;2;2;
74078;PMS5003;62437;51.544;-3.276;2022-11-04T09:02:41;3;3;
74078;PMS5003;62437;51.544;-3.276;2022-11-04T09:05:07;4;3;
74078;PMS5003;62437;51.544;-3.276;2022-11-04T09:07:32;3;3;
74078;PMS5003;62437;51.544;-3.276;2022-11-04T09:09:58;5;5;
74078;PMS5003;62437;51.544;-3.276;2022-11-04T09:12:24;5;4;
74078;PMS5003;62437;51.544;-3.276;2022-11-04T09:14:50;3;2;
74078;PMS5003;62437;51.544;-3.276;2022-11-04T09:17:15;4;3;
74078;PMS5003;62437;51.544;-3.276;2022-11-04T09:19:41;6;5;
74078;PMS5003;62437;51.544;-3.276;2022-11-04T09:22:07;4;4;
74078;PMS5003;62437;51.544;-3.276;2022-11-04T09:24:32;4;4;
74078;PMS5003;62437;51.544;-3.276;2022-11-04T09:26:58;4;4;
74078;PMS5003;62437;51.544;-3.276;2022-11-04T09:29:24;3;3;
74078;PMS5003;62437;51.544;-3.276;2022-11-04T09:31:49;3;3;
74078;PMS5003;62437;51.544;-3.276;2022-11-04T09:34:15;2;2;
74078;PMS5003;62437;51.544;-3.276;2022-11-04T09:36:41;3;3;
74078;PMS5003;62437;51.544;-3.276;2022-11-04T09:39:07;5;4;
74078;PMS5003;62437;51.544;-3.276;2022-11-04T09:41:37;4;4;
74078;PMS5003;62437;51.544;-3.276;2022-11-04T09:44:00;2;2;
74078;PMS5003;62437;51.544;-3.276;2022-11-04T09:46:24;3;3;
74078;PMS5003;62437;51.544;-3.276;2022-11-04T09:48:50;3;2;
74078;PMS5003;62437;51.544;-3.276;2022-11-04T09:51:16;7;6;
74078;PMS5003;62437;51.544;-3.276;2022-11-04T09:53:43;4;4;
74078;PMS5003;62437;51.544;-3.276;2022-11-04T09:56:10;2;2;
74078;PMS5003;62437;51.544;-3.276;2022-11-04T09:58:33;2;2;
74078;PMS5003;62437;51.544;-3.276;2022-11-04T10:00:59;3;3;
74078;PMS5003;62437;51.544;-3.276;2022-11-04T10:03:30;6;6;
74078;PMS5003;62437;51.544;-3.276;2022-11-04T10:05:52;4;3;
74078;PMS5003;62437;51.544;-3.276;2022-11-04T10:08:19;4;3;
74078;PMS5003;62437;51.544;-3.276;2022-11-04T10:10:42;2;2;
74078;PMS5003;62437;51.544;-3.276;2022-11-04T10:13:11;3;3;
74078;PMS5003;62437;51.544;-3.276;2022-11-04T10:15:35;3;3;
74078;PMS5003;62437;51.544;-3.276;2022-11-04T10:18:01;4;2;
74078;PMS5003;62437;51.544;-3.276;2022-11-04T10:20:27;3;3;
74078;PMS5003;62437;51.544;-3.276;2022-11-04T10:22:54;3;2;
74078;PMS5003;62437;51.544;-3.276;2022-11-04T10:25:16;2;2;
74078;PMS5003;62437;51.544;-3.276;2022-11-04T10:27:42;3;2;
74078;PMS5003;62437;51.544;-3.276;2022-11-04T10:30:12;3;2;
74078;PMS5003;62437;51.544;-3.276;2022-11-04T10:32:34;4;3;
74078;PMS5003;62437;51.544;-3.276;2022-11-04T10:34:59;6;6;
74078;PMS5003;62437;51.544;-3.276;2022-11-04T10:37:23;3;3;
74078;PMS5003;62437;51.544;-3.276;2022-11-04T10:39:49;4;3;
74078;PMS5003;62437;51.544;-3.276;2022-11-04T10:42:16;4;4;
74078;PMS5003;62437;51.544;-3.276;2022-11-04T10:44:40;5;4;
74078;PMS5003;62437;51.544;-3.276;2022-11-04T10:47:12;4;3;
74078;PMS5003;62437;51.544;-3.276;2022-11-04T10:49:37;4;4;
74078;PMS5003;62437;51.544;-3.276;2022-11-04T10:51:57;6;4;
74078;PMS5003;62437;51.544;-3.276;2022-11-04T10:54:23;5;4;
74078;PMS5003;62437;51.544;-3.276;2022-11-04T10:56:49;5;5;
74078;PMS5003;62437;51.544;-3.276;2022-11-04T10:59:17;2;2;
74078;PMS5003;62437;51.544;-3.276;2022-11-04T11:01:39;3;3;
74078;PMS5003;62437;51.544;-3.276;2022-11-04T11:04:05;2;2;
74078;PMS5003;62437;51.544;-3.276;2022-11-04T11:06:31;4;3;
74078;PMS5003;62437;51.544;-3.276;2022-11-04T11:08:57;3;3;
74078;PMS5003;62437;51.544;-3.276;2022-11-04T11:13:48;1;1;
74078;PMS5003;62437;51.544;-3.276;2022-11-04T11:16:16;4;3;
74078;PMS5003;62437;51.544;-3.276;2022-11-04T11:18:39;3;3;
74078;PMS5003;62437;51.544;-3.276;2022-11-04T11:21:08;3;2;
74078;PMS5003;62437;51.544;-3.276;2022-11-04T11:23:33;3;3;
74078;PMS5003;62437;51.544;-3.276;2022-11-04T11:25:56;4;4;
74078;PMS5003;62437;51.544;-3.276;2022-11-04T11:28:22;4;3;
74078;PMS5003;62437;51.544;-3.276;2022-11-04T11:33:14;1;1;
74078;PMS5003;62437;51.544;-3.276;2022-11-04T11:35:39;2;2;
74078;PMS5003;62437;51.544;-3.276;2022-11-04T11:38:04;2;2;
74078;PMS5003;62437;51.544;-3.276;2022-11-04T11:40:31;3;3;
74078;PMS5003;62437;51.544;-3.276;2022-11-04T11:42:55;3;3;
74078;PMS5003;62437;51.544;-3.276;2022-11-04T11:45:21;3;3;
74078;PMS5003;62437;51.544;-3.276;2022-11-04T11:47:46;4;3;
74078;PMS5003;62437;51.544;-3.276;2022-11-04T11:50:14;2;2;
74078;PMS5003;62437;51.544;-3.276;2022-11-04T11:52:38;4;4;
74078;PMS5003;62437;51.544;-3.276;2022-11-04T11:55:05;3;3;
74078;PMS5003;62437;51.544;-3.276;2022-11-04T11:57:32;3;3;
74078;PMS5003;62437;51.544;-3.276;2022-11-04T11:59:56;4;3;
74078;PMS5003;62437;51.544;-3.276;2022-11-04T12:02:24;3;2;
74078;PMS5003;62437;51.544;-3.276;2022-11-04T12:04:46;3;2;
74078;PMS5003;62437;51.544;-3.276;2022-11-04T12:07:14;2;2;
74078;PMS5003;62437;51.544;-3.276;2022-11-04T12:09:39;2;2;
74078;PMS5003;62437;51.544;-3.276;2022-11-04T12:12:06;3;2;
74078;PMS5003;62437;51.544;-3.276;2022-11-04T12:14:32;2;2;
74078;PMS5003;62437;51.544;-3.276;2022-11-04T12:17:04;2;1;
74078;PMS5003;62437;51.544;-3.276;2022-11-04T12:19:25;2;1;
74078;PMS5003;62437;51.544;-3.276;2022-11-04T12:21:46;3;3;
74078;PMS5003;62437;51.544;-3.276;2022-11-04T12:24:16;2;2;
74078;PMS5003;62437;51.544;-3.276;2022-11-04T12:26:38;1;1;
74078;PMS5003;62437;51.544;-3.276;2022-11-04T12:29:08;2;1;
74078;PMS5003;62437;51.544;-3.276;2022-11-04T12:31:31;2;2;
74078;PMS5003;62437;51.544;-3.276;2022-11-04T12:33:56;3;3;
74078;PMS5003;62437;51.544;-3.276;2022-11-04T12:36:24;1;1;
74078;PMS5003;62437;51.544;-3.276;2022-11-04T12:38:49;1;1;
74078;PMS5003;62437;51.544;-3.276;2022-11-04T12:41:13;2;1;
74078;PMS5003;62437;51.544;-3.276;2022-11-04T12:43:38;2;2;
74078;PMS5003;62437;51.544;-3.276;2022-11-04T12:46:05;1;1;
74078;PMS5003;62437;51.544;-3.276;2022-11-04T12:48:31;2;2;
74078;PMS5003;62437;51.544;-3.276;2022-11-04T12:50:55;1;1;
74078;PMS5003;62437;51.544;-3.276;2022-11-04T12:53:22;2;1;
74078;PMS5003;62437;51.544;-3.276;2022-11-04T12:55:46;2;1;
74078;PMS5003;62437;51.544;-3.276;2022-11-04T12:58:14;1;1;
74078;PMS5003;62437;51.544;-3.276;2022-11-04T13:00:36;2;2;
74078;PMS5003;62437;51.544;-3.276;2022-11-04T13:03:03;3;3;
74078;PMS5003;62437;51.544;-3.276;2022-11-04T13:05:29;2;2;
74078;PMS5003;62437;51.544;-3.276;2022-11-04T13:07:53;1;1;
74078;PMS5003;62437;51.544;-3.276;2022-11-04T13:10:19;1;1;
74078;PMS5003;62437;51.544;-3.276;2022-11-04T13:12:44;1;1;
74078;PMS5003;62437;51.544;-3.276;2022-11-04T13:15:12;0;0;
74078;PMS5003;62437;51.544;-3.276;2022-11-04T13:17:36;2;2;
74078;PMS5003;62437;51.544;-3.276;2022-11-04T13:20:02;1;1;
74078;PMS5003;62437;51.544;-3.276;2022-11-04T13:22:28;1;1;
74078;PMS5003;62437;51.544;-3.276;2022-11-04T13:24:54;1;1;
74078;PMS5003;62437;51.544;-3.276;2022-11-04T13:27:18;2;2;
74078;PMS5003;62437;51.544;-3.276;2022-11-04T13:29:44;2;1;
74078;PMS5003;62437;51.544;-3.276;2022-11-04T13:32:10;0;0;
74078;PMS5003;62437;51.544;-3.276;2022-11-04T13:34:36;1;1;
74078;PMS5003;62437;51.544;-3.276;2022-11-04T13:37:04;2;2;
74078;PMS5003;62437;51.544;-3.276;2022-11-04T13:39:27;1;1;
74078;PMS5003;62437;51.544;-3.276;2022-11-04T13:42:02;1;1;
74078;PMS5003;62437;51.544;-3.276;2022-11-04T13:44:19;1;1;
74078;PMS5003;62437;51.544;-3.276;2022-11-04T13:46:46;2;1;
74078;PMS5003;62437;51.544;-3.276;2022-11-04T13:49:14;2;2;
74078;PMS5003;62437;51.544;-3.276;2022-11-04T13:51:35;1;1;
74078;PMS5003;62437;51.544;-3.276;2022-11-04T13:54:00;1;0;
74078;PMS5003;62437;51.544;-3.276;2022-11-04T13:56:27;1;1;
74078;PMS5003;62437;51.544;-3.276;2022-11-04T13:58:51;0;0;
74078;PMS5003;62437;51.544;-3.276;2022-11-04T14:03:49;1;1;
74078;PMS5003;62437;51.544;-3.276;2022-11-04T14:06:09;1;1;
74078;PMS5003;62437;51.544;-3.276;2022-11-04T14:08:34;0;0;
74078;PMS5003;62437;51.544;-3.276;2022-11-04T14:11:01;2;1;
74078;PMS5003;62437;51.544;-3.276;2022-11-04T14:15:58;2;2;
74078;PMS5003;62437;51.544;-3.276;2022-11-04T14:23:17;1;0;
74078;PMS5003;62437;51.544;-3.276;2022-11-04T14:25:35;1;1;
74078;PMS5003;62437;51.544;-3.276;2022-11-04T14:27:59;1;1;
74078;PMS5003;62437;51.544;-3.276;2022-11-04T14:30:27;1;1;
74078;PMS5003;62437;51.544;-3.276;2022-11-04T14:32:53;2;1;
74078;PMS5003;62437;51.544;-3.276;2022-11-04T14:35:16;1;1;
74078;PMS5003;62437;51.544;-3.276;2022-11-04T14:37:41;0;0;
74078;PMS5003;62437;51.544;-3.276;2022-11-04T14:42:42;1;1;
74078;PMS5003;62437;51.544;-3.276;2022-11-04T14:44:58;2;2;
74078;PMS5003;62437;51.544;-3.276;2022-11-04T14:47:24;1;1;
74078;PMS5003;62437;51.544;-3.276;2022-11-04T14:49:50;0;0;
74078;PMS5003;62437;51.544;-3.276;2022-11-04T14:52:18;1;1;
74078;PMS5003;62437;51.544;-3.276;2022-11-04T14:54:41;1;1;
74078;PMS5003;62437;51.544;-3.276;2022-11-04T14:57:11;1;1;
74078;PMS5003;62437;51.544;-3.276;2022-11-04T14:59:32;1;1;
74078;PMS5003;62437;51.544;-3.276;2022-11-04T15:01:58;1;1;
74078;PMS5003;62437;51.544;-3.276;2022-11-04T15:04:25;2;2;
74078;PMS5003;62437;51.544;-3.276;2022-11-04T15:06:52;2;1;
74078;PMS5003;62437;51.544;-3.276;2022-11-04T15:09:18;0;0;
74078;PMS5003;62437;51.544;-3.276;2022-11-04T15:11:41;1;1;
74078;PMS5003;62437;51.544;-3.276;2022-11-04T15:14:11;0;0;
74078;PMS5003;62437;51.544;-3.276;2022-11-04T15:16:32;1;1;
74078;PMS5003;62437;51.544;-3.276;2022-11-04T15:18:58;0;0;
74078;PMS5003;62437;51.544;-3.276;2022-11-04T15:21:24;0;0;
74078;PMS5003;62437;51.544;-3.276;2022-11-04T15:23:50;2;2;
74078;PMS5003;62437;51.544;-3.276;2022-11-04T15:26:18;1;1;
74078;PMS5003;62437;51.544;-3.276;2022-11-04T15:28:43;1;1;
74078;PMS5003;62437;51.544;-3.276;2022-11-04T15:31:12;1;0;
74078;PMS5003;62437;51.544;-3.276;2022-11-04T15:33:34;1;1;
74078;PMS5003;62437;51.544;-3.276;2022-11-04T15:35:57;0;0;
74078;PMS5003;62437;51.544;-3.276;2022-11-04T15:38:24;1;1;
74078;PMS5003;62437;51.544;-3.276;2022-11-04T15:40:49;2;2;
74078;PMS5003;62437;51.544;-3.276;2022-11-04T15:43:14;0;0;
74078;PMS5003;62437;51.544;-3.276;2022-11-04T15:50:31;1;1;
74078;PMS5003;62437;51.544;-3.276;2022-11-04T15:52:57;2;2;
74078;PMS5003;62437;51.544;-3.276;2022-11-04T15:55:24;1;1;
74078;PMS5003;62437;51.544;-3.276;2022-11-04T15:57:49;1;1;
74078;PMS5003;62437;51.544;-3.276;2022-11-04T16:00:19;2;1;
74078;PMS5003;62437;51.544;-3.276;2022-11-04T16:02:43;1;1;
74078;PMS5003;62437;51.544;-3.276;2022-11-04T16:05:15;1;1;
74078;PMS5003;62437;51.544;-3.276;2022-11-04T16:07:33;1;1;
74078;PMS5003;62437;51.544;-3.276;2022-11-04T16:09:57;1;1;
74078;PMS5003;62437;51.544;-3.276;2022-11-04T16:12:24;1;1;
74078;PMS5003;62437;51.544;-3.276;2022-11-04T16:14:49;2;2;
74078;PMS5003;62437;51.544;-3.276;2022-11-04T16:17:14;1;1;
74078;PMS5003;62437;51.544;-3.276;2022-11-04T16:19:39;1;1;
74078;PMS5003;62437;51.544;-3.276;2022-11-04T16:22:06;1;1;
74078;PMS5003;62437;51.544;-3.276;2022-11-04T16:24:31;1;1;
74078;PMS5003;62437;51.544;-3.276;2022-11-04T16:26:57;1;0;
74078;PMS5003;62437;51.544;-3.276;2022-11-04T16:29:23;1;1;
74078;PMS5003;62437;51.544;-3.276;2022-11-04T16:34:14;1;1;
74078;PMS5003;62437;51.544;-3.276;2022-11-04T16:36:39;1;1;
74078;PMS5003;62437;51.544;-3.276;2022-11-04T16:39:05;1;1;
74078;PMS5003;62437;51.544;-3.276;2022-11-04T16:41:32;1;1;
74078;PMS5003;62437;51.544;-3.276;2022-11-04T16:43:57;2;2;
74078;PMS5003;62437;51.544;-3.276;2022-11-04T16:46:22;1;1;
74078;PMS5003;62437;51.544;-3.276;2022-11-04T16:48:48;1;1;
74078;PMS5003;62437;51.544;-3.276;2022-11-04T16:51:15;0;0;
74078;PMS5003;62437;51.544;-3.276;2022-11-04T16:53:39;1;1;